Verdigre, Nebraska
Current Conditions -  °F | °C
As of 1:35 PM on Thursday 30 Oct 2014 (Local Time) from KONL Reporting Station
Clear Clear  
Wind Chill: 55°   Ceiling: Unl
Heat Index: 55°   Visibility: 10mi
Dew Point: 38°   Wind: 22mph
Humidity: 52%   Direction: 330°NNW
Pressure: 30.21"   Gusts: 32mph
Location:  42.6°N, 98.03°W
Report Text: KONL 301835Z AUTO 33019G28KT 10SM CLR 13/03 A3021 RMK AO2 T01300034
Loading
Personal Weather Stations






























Interactive Weather Map
Tropical Storm Tracking
New forecast layout! Learn more

10-Day Weather Forecast

Advertisements
Track Severe Weather on mobile